createdAt,value
2022-10-23T00:00:24.413Z,23.10
2022-10-23T00:00:54.812Z,23.11
2022-10-23T00:01:25.234Z,23.11
2022-10-23T00:01:55.680Z,23.11
2022-10-23T00:02:26.185Z,23.12
2022-10-23T00:02:56.628Z,23.10
2022-10-23T00:03:27.039Z,23.08
2022-10-23T00:03:57.473Z,23.05
2022-10-23T00:04:27.923Z,23.06
2022-10-23T00:04:58.370Z,23.09
2022-10-23T00:05:28.804Z,23.09
2022-10-23T00:05:59.226Z,23.11
2022-10-23T00:06:29.660Z,23.08
2022-10-23T00:07:00.087Z,23.06
2022-10-23T00:08:00.869Z,23.06
2022-10-23T00:08:31.307Z,23.10
2022-10-23T00:09:01.745Z,23.11
2022-10-23T00:09:32.157Z,23.09
2022-10-23T00:10:02.590Z,23.07
2022-10-23T00:10:33.009Z,23.07
2022-10-23T00:11:03.433Z,23.09
2022-10-23T00:11:33.863Z,23.13
2022-10-23T00:12:04.282Z,23.12
2022-10-23T00:12:34.708Z,23.11
2022-10-23T00:13:05.139Z,23.10
2022-10-23T00:13:35.562Z,23.10
2022-10-23T00:14:06.009Z,23.10
2022-10-23T00:14:36.448Z,23.09
2022-10-23T00:15:06.878Z,23.09
2022-10-23T00:15:37.307Z,23.11
2022-10-23T00:16:07.732Z,23.12
2022-10-23T00:16:38.169Z,23.13
2022-10-23T00:17:08.987Z,23.13
2022-10-23T00:17:39.624Z,23.13
2022-10-23T00:18:10.051Z,23.12
2022-10-23T00:18:40.475Z,23.11
2022-10-23T00:19:10.895Z,23.12
2022-10-23T00:19:41.334Z,23.11
2022-10-23T00:20:11.789Z,23.12
2022-10-23T00:20:42.215Z,23.10
2022-10-23T00:21:12.637Z,23.10
2022-10-23T00:21:43.066Z,23.12
2022-10-23T00:22:13.500Z,23.12
2022-10-23T00:22:43.992Z,23.12
2022-10-23T00:23:14.385Z,23.10
2022-10-23T00:23:44.808Z,23.10
2022-10-23T00:24:15.255Z,23.13
2022-10-23T00:24:45.668Z,23.11
2022-10-23T00:25:16.105Z,23.10
2022-10-23T00:25:46.533Z,23.11
2022-10-23T00:26:16.961Z,23.09
2022-10-23T00:26:47.406Z,23.09
2022-10-23T00:27:17.831Z,23.10
2022-10-23T00:27:48.277Z,23.09
2022-10-23T00:28:18.704Z,23.08
2022-10-23T00:28:49.124Z,23.08
2022-10-23T00:29:19.546Z,23.09
2022-10-23T00:29:49.980Z,23.11
2022-10-23T00:30:20.403Z,23.11
2022-10-23T00:30:50.825Z,23.09
2022-10-23T00:31:21.269Z,23.10
2022-10-23T00:31:51.690Z,23.10
2022-10-23T00:32:22.206Z,23.11
2022-10-23T00:32:52.600Z,23.11
2022-10-23T00:33:23.030Z,23.12
2022-10-23T00:33:53.462Z,23.11
2022-10-23T00:34:23.884Z,23.11
2022-10-23T00:34:54.316Z,23.10
2022-10-23T00:35:24.744Z,23.10
2022-10-23T00:35:55.163Z,23.10
2022-10-23T00:36:25.596Z,23.08
2022-10-23T00:36:56.014Z,23.04
2022-10-23T00:37:26.456Z,23.05
2022-10-23T00:37:56.879Z,23.03
2022-10-23T00:38:27.317Z,23.05
2022-10-23T00:38:57.733Z,23.06
2022-10-23T00:39:28.176Z,23.07
2022-10-23T00:39:58.618Z,23.06
2022-10-23T00:40:29.040Z,23.05
2022-10-23T00:40:59.465Z,23.06
2022-10-23T00:41:29.891Z,23.06
2022-10-23T00:42:00.301Z,23.10
2022-10-23T00:42:30.766Z,23.09
2022-10-23T00:43:01.192Z,23.08
2022-10-23T00:43:31.612Z,23.07
2022-10-23T00:44:02.036Z,23.07
2022-10-23T00:44:32.463Z,23.08
2022-10-23T00:45:02.896Z,23.06
2022-10-23T00:45:33.351Z,23.05
2022-10-23T00:46:03.757Z,23.06
2022-10-23T00:46:34.182Z,23.07
2022-10-23T00:47:04.627Z,23.07
2022-10-23T00:47:35.043Z,23.09
2022-10-23T00:48:05.464Z,23.10
2022-10-23T00:48:35.882Z,23.08
2022-10-23T00:49:06.371Z,23.06
2022-10-23T00:49:39.488Z,23.06
2022-10-23T00:50:12.181Z,23.08
2022-10-23T00:50:42.550Z,23.10
2022-10-23T00:51:12.974Z,23.09
2022-10-23T00:51:43.415Z,23.09
2022-10-23T00:52:13.846Z,23.10
2022-10-23T00:52:44.582Z,23.09
2022-10-23T00:53:15.097Z,23.08
2022-10-23T00:53:48.012Z,23.09
2022-10-23T00:54:24.681Z,23.10
2022-10-23T00:54:55.312Z,23.09
2022-10-23T00:55:25.759Z,23.05
2022-10-23T00:55:56.194Z,23.06
2022-10-23T00:56:26.620Z,23.06
2022-10-23T00:56:57.050Z,23.10
2022-10-23T00:57:57.861Z,23.09
2022-10-23T00:58:28.288Z,23.07
2022-10-23T00:58:58.718Z,23.08
2022-10-23T00:59:29.146Z,23.07
2022-10-23T00:59:59.571Z,23.05
2022-10-23T01:00:30.007Z,23.04
2022-10-23T01:01:00.507Z,23.05
2022-10-23T01:01:31.009Z,23.06
2022-10-23T01:02:01.646Z,23.06
2022-10-23T01:02:32.138Z,23.06
2022-10-23T01:03:02.532Z,23.09
2022-10-23T01:03:32.964Z,23.08
2022-10-23T01:04:03.389Z,23.07
2022-10-23T01:04:33.809Z,23.06
2022-10-23T01:05:04.270Z,23.05
2022-10-23T01:05:34.738Z,23.06
2022-10-23T01:06:05.157Z,23.06
2022-10-23T01:06:35.577Z,23.06
2022-10-23T01:07:06.026Z,23.06
2022-10-23T01:07:36.439Z,23.04
2022-10-23T01:08:06.864Z,23.06
2022-10-23T01:08:37.291Z,23.05
2022-10-23T01:09:07.714Z,23.04
2022-10-23T01:09:38.136Z,23.03
2022-10-23T01:10:08.578Z,23.04
2022-10-23T01:10:38.997Z,23.07
2022-10-23T01:11:09.429Z,23.09
2022-10-23T01:11:39.858Z,23.08
2022-10-23T01:12:10.285Z,23.06
2022-10-23T01:12:40.709Z,23.07
2022-10-23T01:13:11.134Z,23.07
2022-10-23T01:13:41.557Z,23.10
2022-10-23T01:14:11.985Z,23.09
2022-10-23T01:14:47.291Z,23.10
2022-10-23T01:15:17.716Z,23.11
2022-10-23T01:15:48.143Z,23.11
2022-10-23T01:16:18.565Z,23.09
2022-10-23T01:16:48.992Z,23.07
2022-10-23T01:17:19.402Z,23.06
2022-10-23T01:17:50.102Z,23.07
2022-10-23T01:18:20.815Z,23.09
2022-10-23T01:18:51.236Z,23.07
2022-10-23T01:19:21.658Z,23.08
2022-10-23T01:19:52.119Z,23.09
2022-10-23T01:20:22.543Z,23.11
2022-10-23T01:20:52.979Z,23.08
2022-10-23T01:21:23.401Z,23.08
2022-10-23T01:21:53.822Z,23.07
2022-10-23T01:22:55.610Z,23.06
2022-10-23T01:23:26.029Z,23.05
2022-10-23T01:23:56.459Z,23.06
2022-10-23T01:24:26.884Z,23.09
2022-10-23T01:24:57.309Z,23.10
2022-10-23T01:25:27.761Z,23.11
2022-10-23T01:25:58.220Z,23.10
2022-10-23T01:26:28.662Z,23.10
2022-10-23T01:26:59.080Z,23.09
2022-10-23T01:27:29.508Z,23.07
2022-10-23T01:27:59.944Z,23.05
2022-10-23T01:28:30.367Z,23.06
2022-10-23T01:29:00.799Z,23.07
2022-10-23T01:29:31.228Z,23.08
2022-10-23T01:30:01.644Z,23.08
2022-10-23T01:30:32.146Z,23.08
2022-10-23T01:31:02.615Z,23.09
2022-10-23T01:31:33.016Z,23.09
2022-10-23T01:32:03.455Z,23.11
2022-10-23T01:32:33.865Z,23.10
2022-10-23T01:33:04.288Z,23.10
2022-10-23T01:33:34.714Z,23.08
2022-10-23T01:34:05.140Z,23.07
2022-10-23T01:34:35.562Z,23.07
2022-10-23T01:35:05.982Z,23.09
2022-10-23T01:35:36.423Z,23.06
2022-10-23T01:36:06.855Z,23.04
2022-10-23T01:36:37.278Z,23.04
2022-10-23T01:37:07.702Z,23.04
2022-10-23T01:37:38.126Z,23.04
2022-10-23T01:38:08.546Z,23.03
2022-10-23T01:38:38.971Z,23.04
2022-10-23T01:39:09.402Z,23.04
2022-10-23T01:39:39.824Z,23.07
2022-10-23T01:40:10.252Z,23.10
2022-10-23T01:40:40.695Z,23.11
2022-10-23T01:41:11.110Z,23.13
2022-10-23T01:41:41.532Z,23.14
2022-10-23T01:42:11.955Z,23.12
2022-10-23T01:42:42.613Z,23.12
2022-10-23T01:43:13.144Z,23.12
2022-10-23T01:43:43.560Z,23.12
2022-10-23T01:44:13.985Z,23.11
2022-10-23T01:44:44.418Z,23.11
2022-10-23T01:45:14.841Z,23.11
2022-10-23T01:45:45.272Z,23.13
2022-10-23T01:46:15.702Z,23.10
2022-10-23T01:46:46.127Z,23.09
2022-10-23T01:47:16.600Z,23.10
2022-10-23T01:47:46.979Z,23.10
2022-10-23T01:48:17.410Z,23.10
2022-10-23T01:48:47.830Z,23.12
2022-10-23T01:49:18.254Z,23.12
2022-10-23T01:49:48.677Z,23.11
2022-10-23T01:50:19.101Z,23.09
2022-10-23T01:50:49.544Z,23.08
2022-10-23T01:51:19.966Z,23.09
2022-10-23T01:51:50.392Z,23.10
2022-10-23T01:52:20.814Z,23.08
2022-10-23T01:52:51.242Z,23.07
2022-10-23T01:53:21.657Z,23.08
2022-10-23T01:53:52.080Z,23.09
2022-10-23T01:54:22.505Z,23.10
2022-10-23T01:54:52.927Z,23.09
2022-10-23T01:55:23.357Z,23.07
2022-10-23T01:55:53.806Z,23.06
2022-10-23T01:56:24.223Z,23.05
2022-10-23T01:56:54.642Z,23.04
2022-10-23T01:57:25.084Z,23.04
2022-10-23T01:57:55.508Z,23.07
2022-10-23T01:58:25.954Z,23.07
2022-10-23T01:58:56.384Z,23.06
2022-10-23T01:59:26.809Z,23.05
2022-10-23T01:59:57.235Z,23.03
2022-10-23T02:00:27.657Z,23.03
2022-10-23T02:00:58.110Z,23.04
2022-10-23T02:01:28.708Z,23.05
2022-10-23T02:01:59.253Z,23.05
2022-10-23T02:02:29.786Z,23.07
2022-10-23T02:03:00.201Z,23.09
2022-10-23T02:03:30.621Z,23.09
2022-10-23T02:04:01.044Z,23.10
2022-10-23T02:04:31.479Z,23.12
2022-10-23T02:05:01.900Z,23.10
2022-10-23T02:05:32.334Z,23.10
2022-10-23T02:06:02.753Z,23.10
2022-10-23T02:06:33.214Z,23.07
2022-10-23T02:07:03.657Z,23.09
2022-10-23T02:07:34.070Z,23.10
2022-10-23T02:08:04.517Z,23.10
2022-10-23T02:08:34.933Z,23.08
2022-10-23T02:09:05.358Z,23.08
2022-10-23T02:09:35.779Z,23.10
2022-10-23T02:10:06.199Z,23.09
2022-10-23T02:10:36.620Z,23.09
2022-10-23T02:11:07.064Z,23.11
2022-10-23T02:11:37.482Z,23.10
2022-10-23T02:12:07.917Z,23.09
2022-10-23T02:12:38.337Z,23.08
2022-10-23T02:13:08.766Z,23.09
2022-10-23T02:13:39.217Z,23.06
2022-10-23T02:14:09.643Z,23.06
2022-10-23T02:14:40.416Z,23.05
2022-10-23T02:15:10.840Z,23.06
2022-10-23T02:15:41.266Z,23.07
2022-10-23T02:16:11.693Z,23.09
2022-10-23T02:16:42.137Z,23.11
2022-10-23T02:17:12.562Z,23.11
2022-10-23T02:17:43.421Z,23.13
2022-10-23T02:18:13.947Z,23.10
2022-10-23T02:18:44.382Z,23.07
2022-10-23T02:19:14.853Z,23.08
2022-10-23T02:19:45.285Z,23.09
2022-10-23T02:20:15.720Z,23.11
2022-10-23T02:20:46.162Z,23.11
2022-10-23T02:21:16.585Z,23.11
2022-10-23T02:21:47.021Z,23.09
2022-10-23T02:22:17.441Z,23.07
2022-10-23T02:22:47.867Z,23.06
2022-10-23T02:23:18.285Z,23.07
2022-10-23T02:23:51.406Z,23.07
2022-10-23T02:24:24.036Z,23.09
2022-10-23T02:24:54.460Z,23.09
2022-10-23T02:25:24.897Z,23.10
2022-10-23T02:25:55.324Z,23.08
2022-10-23T02:26:25.778Z,23.06
2022-10-23T02:26:56.197Z,23.04
2022-10-23T02:27:26.619Z,23.06
2022-10-23T02:27:57.055Z,23.09
2022-10-23T02:28:27.482Z,23.08
2022-10-23T02:28:57.945Z,23.05
2022-10-23T02:29:28.329Z,23.04
2022-10-23T02:29:58.751Z,23.05
2022-10-23T02:30:29.173Z,23.06
2022-10-23T02:30:59.596Z,23.07
2022-10-23T02:31:30.021Z,23.07
2022-10-23T02:32:00.464Z,23.09
2022-10-23T02:32:30.883Z,23.09
2022-10-23T02:33:01.307Z,23.08
2022-10-23T02:33:31.738Z,23.05
2022-10-23T02:34:02.156Z,23.04
2022-10-23T02:34:32.576Z,23.06
2022-10-23T02:35:02.999Z,23.05
2022-10-23T02:35:33.436Z,23.06
2022-10-23T02:36:03.870Z,23.09
2022-10-23T02:36:34.300Z,23.07
2022-10-23T02:37:04.746Z,23.07
2022-10-23T02:37:35.172Z,23.09
2022-10-23T02:38:05.595Z,23.08
2022-10-23T02:38:36.015Z,23.07
2022-10-23T02:39:06.451Z,23.07
2022-10-23T02:39:36.885Z,23.06
2022-10-23T02:40:07.296Z,23.06
2022-10-23T02:40:37.718Z,23.07
2022-10-23T02:41:08.171Z,23.07
2022-10-23T02:41:38.615Z,23.07
2022-10-23T02:42:09.048Z,23.07
2022-10-23T02:42:39.473Z,23.07
2022-10-23T02:43:09.897Z,23.08
2022-10-23T02:43:40.325Z,23.08
2022-10-23T02:44:10.741Z,23.06
2022-10-23T02:44:41.164Z,23.04
2022-10-23T02:45:11.586Z,23.03
2022-10-23T02:45:42.077Z,23.03
2022-10-23T02:46:12.441Z,23.03
2022-10-23T02:46:42.894Z,23.04
2022-10-23T02:47:13.321Z,23.05
2022-10-23T02:47:44.100Z,23.04
2022-10-23T02:48:14.644Z,23.03
2022-10-23T02:48:45.070Z,23.03
2022-10-23T02:49:15.496Z,23.01
2022-10-23T02:49:45.919Z,23.03
2022-10-23T02:50:16.355Z,23.03
2022-10-23T02:50:46.772Z,23.05
2022-10-23T02:51:17.192Z,23.04
2022-10-23T02:51:47.616Z,23.02
2022-10-23T02:52:18.058Z,23.01
2022-10-23T02:52:48.480Z,23.01
2022-10-23T02:53:18.910Z,23.01
2022-10-23T02:53:49.384Z,23.03
2022-10-23T02:54:19.774Z,23.06
2022-10-23T02:54:50.206Z,23.07
2022-10-23T02:55:20.649Z,23.05
2022-10-23T02:55:51.082Z,23.05
2022-10-23T02:56:21.520Z,23.05
2022-10-23T02:56:51.952Z,23.04
2022-10-23T02:57:22.374Z,23.03
2022-10-23T02:57:52.800Z,23.04
2022-10-23T02:58:23.225Z,23.04
2022-10-23T02:58:53.647Z,23.05
2022-10-23T02:59:24.073Z,23.06
2022-10-23T02:59:54.510Z,23.04
2022-10-23T03:00:24.938Z,23.03
2022-10-23T03:00:55.381Z,23.03
2022-10-23T03:01:25.971Z,23.03
2022-10-23T03:01:56.548Z,23.03
2022-10-23T03:02:27.061Z,23.03
2022-10-23T03:02:57.474Z,23.03
2022-10-23T03:03:27.921Z,23.01
2022-10-23T03:03:58.350Z,23.00
2022-10-23T03:04:28.771Z,23.00
2022-10-23T03:04:59.196Z,23.02
2022-10-23T03:05:29.618Z,23.06
2022-10-23T03:06:00.052Z,23.09
2022-10-23T03:06:30.487Z,23.07
2022-10-23T03:07:00.909Z,23.09
2022-10-23T03:07:31.369Z,23.09
2022-10-23T03:08:01.782Z,23.06
2022-10-23T03:08:32.213Z,23.06
2022-10-23T03:09:02.654Z,23.04
2022-10-23T03:09:33.074Z,23.05
2022-10-23T03:10:03.495Z,23.04
2022-10-23T03:10:33.922Z,23.05
2022-10-23T03:11:04.344Z,23.05
2022-10-23T03:11:34.769Z,23.06
2022-10-23T03:12:05.212Z,23.05
2022-10-23T03:12:35.640Z,23.04
2022-10-23T03:13:06.066Z,23.03
2022-10-23T03:13:36.495Z,23.03
2022-10-23T03:14:06.916Z,23.01
2022-10-23T03:14:37.339Z,23.02
2022-10-23T03:15:07.770Z,23.04
2022-10-23T03:15:38.187Z,23.06
2022-10-23T03:16:08.608Z,23.04
2022-10-23T03:16:39.031Z,23.05
2022-10-23T03:17:09.468Z,23.05
2022-10-23T03:17:39.915Z,23.07
2022-10-23T03:18:10.354Z,23.08
2022-10-23T03:18:40.795Z,23.09
2022-10-23T03:19:42.576Z,23.05
2022-10-23T03:20:13.003Z,23.06
2022-10-23T03:20:43.444Z,23.06
2022-10-23T03:21:13.869Z,23.04
2022-10-23T03:21:44.310Z,23.03
2022-10-23T03:22:14.731Z,23.05
2022-10-23T03:22:45.493Z,23.03
2022-10-23T03:23:16.098Z,23.02
2022-10-23T03:23:46.520Z,23.03
2022-10-23T03:24:16.946Z,23.05
2022-10-23T03:24:47.379Z,23.06
2022-10-23T03:25:17.814Z,23.07
2022-10-23T03:25:48.242Z,23.07
2022-10-23T03:26:18.670Z,23.06
2022-10-23T03:26:49.087Z,23.04
2022-10-23T03:27:19.621Z,23.02
2022-10-23T03:27:50.026Z,23.04
2022-10-23T03:28:20.452Z,23.05
2022-10-23T03:28:50.875Z,23.06
2022-10-23T03:29:21.299Z,23.09
2022-10-23T03:29:51.753Z,23.08
2022-10-23T03:30:22.180Z,23.06
2022-10-23T03:30:52.621Z,23.06
2022-10-23T03:31:23.038Z,23.06
2022-10-23T03:31:53.460Z,23.07
2022-10-23T03:32:23.892Z,23.08
2022-10-23T03:32:54.329Z,23.06
2022-10-23T03:33:24.757Z,23.05
2022-10-23T03:33:55.178Z,23.05
2022-10-23T03:34:25.602Z,23.06
2022-10-23T03:34:56.026Z,23.07
2022-10-23T03:35:26.743Z,23.06
2022-10-23T03:35:57.175Z,23.06
2022-10-23T03:36:27.593Z,23.09
2022-10-23T03:36:58.026Z,23.09
2022-10-23T03:37:28.448Z,23.10
2022-10-23T03:37:58.889Z,23.10
2022-10-23T03:38:29.311Z,23.09
2022-10-23T03:38:59.746Z,23.06
2022-10-23T03:39:30.173Z,23.07
2022-10-23T03:40:00.592Z,23.09
2022-10-23T03:40:31.028Z,23.09
2022-10-23T03:41:01.455Z,23.10
2022-10-23T03:41:31.886Z,23.10
2022-10-23T03:42:02.309Z,23.11
2022-10-23T03:42:32.752Z,23.11
2022-10-23T03:43:03.183Z,23.12
2022-10-23T03:43:33.610Z,23.10
2022-10-23T03:44:35.392Z,23.07
2022-10-23T03:45:05.806Z,23.09
2022-10-23T03:45:36.225Z,23.08
2022-10-23T03:46:06.657Z,23.09
2022-10-23T03:46:37.086Z,23.07
2022-10-23T03:47:07.524Z,23.07
2022-10-23T03:47:37.946Z,23.06
2022-10-23T03:48:08.394Z,23.08
2022-10-23T03:48:38.811Z,23.06
2022-10-23T03:49:09.236Z,23.04
2022-10-23T03:49:39.665Z,23.04
2022-10-23T03:50:10.091Z,23.04
2022-10-23T03:50:40.511Z,23.05
2022-10-23T03:51:10.931Z,23.05
2022-10-23T03:51:41.353Z,23.07
2022-10-23T03:52:11.831Z,23.05
2022-10-23T03:52:42.674Z,23.04
2022-10-23T03:53:13.370Z,23.05
2022-10-23T03:53:43.793Z,23.05
2022-10-23T03:54:14.228Z,23.06
2022-10-23T03:54:44.651Z,23.09
2022-10-23T03:55:15.079Z,23.09
2022-10-23T03:55:45.506Z,23.09
2022-10-23T03:56:15.925Z,23.09
2022-10-23T03:56:46.353Z,23.07
2022-10-23T03:57:16.775Z,23.04
2022-10-23T03:57:47.231Z,23.04
2022-10-23T03:58:17.682Z,23.04
2022-10-23T03:58:48.105Z,23.05
2022-10-23T03:59:18.527Z,23.04
2022-10-23T03:59:48.948Z,23.05
2022-10-23T04:00:19.377Z,23.06
2022-10-23T04:00:49.807Z,23.07
2022-10-23T04:01:20.310Z,23.04
2022-10-23T04:01:50.831Z,23.04
2022-10-23T04:02:21.405Z,23.04
2022-10-23T04:02:51.870Z,23.04
2022-10-23T04:03:22.313Z,23.05
2022-10-23T04:03:52.732Z,23.07
2022-10-23T04:04:23.157Z,23.05
2022-10-23T04:04:53.585Z,23.04
2022-10-23T04:05:24.019Z,23.04
2022-10-23T04:05:54.449Z,23.04
2022-10-23T04:06:24.877Z,23.06
2022-10-23T04:06:55.346Z,23.05
2022-10-23T04:07:25.776Z,23.04
2022-10-23T04:07:56.201Z,23.05
2022-10-23T04:08:26.651Z,23.05
2022-10-23T04:08:57.071Z,23.05
2022-10-23T04:09:27.497Z,23.07
2022-10-23T04:09:57.915Z,23.09
2022-10-23T04:10:28.337Z,23.07
2022-10-23T04:10:58.768Z,23.06
2022-10-23T04:11:29.189Z,23.06
2022-10-23T04:11:59.614Z,23.06
2022-10-23T04:12:30.038Z,23.07
2022-10-23T04:13:00.486Z,23.08
2022-10-23T04:13:30.905Z,23.06
2022-10-23T04:14:01.326Z,23.07
2022-10-23T04:14:31.767Z,23.09
2022-10-23T04:15:02.202Z,23.07
2022-10-23T04:15:32.630Z,23.09
2022-10-23T04:16:03.050Z,23.07
2022-10-23T04:16:33.469Z,23.05
2022-10-23T04:17:03.894Z,23.05
2022-10-23T04:17:34.318Z,23.02
2022-10-23T04:18:04.759Z,23.02
2022-10-23T04:18:35.205Z,23.02
2022-10-23T04:19:05.630Z,23.02
2022-10-23T04:19:36.064Z,23.01
2022-10-23T04:20:06.487Z,23.00
2022-10-23T04:20:36.920Z,23.02
2022-10-23T04:21:07.343Z,23.04
2022-10-23T04:21:37.766Z,23.05
2022-10-23T04:22:08.215Z,23.03
2022-10-23T04:22:38.644Z,23.02
2022-10-23T04:23:09.065Z,23.02
2022-10-23T04:23:39.511Z,23.03
2022-10-23T04:24:09.965Z,23.03
2022-10-23T04:24:40.404Z,23.04
2022-10-23T04:25:10.855Z,23.04
2022-10-23T04:25:41.308Z,23.05
2022-10-23T04:26:11.717Z,23.06
2022-10-23T04:26:42.145Z,23.05
2022-10-23T04:27:12.572Z,23.04
2022-10-23T04:27:43.223Z,23.02
2022-10-23T04:28:13.750Z,23.00
2022-10-23T04:28:44.202Z,22.99
2022-10-23T04:29:14.616Z,23.00
2022-10-23T04:29:45.049Z,23.02
2022-10-23T04:30:15.488Z,23.03
2022-10-23T04:30:45.910Z,23.01
2022-10-23T04:31:16.334Z,23.02
2022-10-23T04:31:46.753Z,23.01
2022-10-23T04:32:17.198Z,23.00
2022-10-23T04:32:47.619Z,23.01
2022-10-23T04:33:18.041Z,23.02
2022-10-23T04:33:48.499Z,23.02
2022-10-23T04:34:18.930Z,23.01
2022-10-23T04:34:49.351Z,23.01
2022-10-23T04:35:19.774Z,23.01
2022-10-23T04:35:50.207Z,22.99
2022-10-23T04:36:20.646Z,23.00
2022-10-23T04:36:51.078Z,23.02
2022-10-23T04:37:21.508Z,23.04
2022-10-23T04:37:51.929Z,23.06
2022-10-23T04:38:22.349Z,23.05
2022-10-23T04:38:52.789Z,23.02
2022-10-23T04:39:23.223Z,22.99
2022-10-23T04:39:53.659Z,22.97
2022-10-23T04:40:24.081Z,22.98
2022-10-23T04:40:54.499Z,22.98
2022-10-23T04:41:24.922Z,22.97
2022-10-23T04:41:55.356Z,22.98
2022-10-23T04:42:56.185Z,22.98
2022-10-23T04:43:26.626Z,22.96
2022-10-23T04:43:57.056Z,22.99
2022-10-23T04:44:27.493Z,23.01
2022-10-23T04:44:57.917Z,23.03
2022-10-23T04:45:28.330Z,23.01
2022-10-23T04:45:58.752Z,23.02
2022-10-23T04:46:29.180Z,23.01
2022-10-23T04:46:59.602Z,23.02
2022-10-23T04:47:30.035Z,23.00
2022-10-23T04:48:00.468Z,22.99
2022-10-23T04:48:30.894Z,22.99
2022-10-23T04:49:01.337Z,23.01
2022-10-23T04:49:31.764Z,23.02
2022-10-23T04:50:02.202Z,23.02
2022-10-23T04:50:32.625Z,23.02
2022-10-23T04:51:03.046Z,23.01
2022-10-23T04:51:33.475Z,23.00
2022-10-23T04:52:03.910Z,23.00
2022-10-23T04:52:34.326Z,23.00
2022-10-23T04:53:04.753Z,23.00
2022-10-23T04:53:35.176Z,22.99
2022-10-23T04:54:05.644Z,22.99
2022-10-23T04:54:36.065Z,22.98
2022-10-23T04:55:06.487Z,22.97
2022-10-23T04:55:36.912Z,22.99
2022-10-23T04:56:07.334Z,23.00
2022-10-23T04:56:37.774Z,22.98
2022-10-23T04:57:08.204Z,22.99
2022-10-23T04:57:38.627Z,22.98
2022-10-23T04:58:09.048Z,22.99
2022-10-23T04:58:39.489Z,23.00
2022-10-23T04:59:09.908Z,23.00
2022-10-23T04:59:40.334Z,22.99
2022-10-23T05:00:10.770Z,22.99
2022-10-23T05:00:41.279Z,22.99
2022-10-23T05:01:11.810Z,23.01
2022-10-23T05:01:42.250Z,22.97
2022-10-23T05:02:12.622Z,22.98
2022-10-23T05:02:43.380Z,23.00
2022-10-23T05:03:13.915Z,23.01
2022-10-23T05:03:44.338Z,23.01
2022-10-23T05:04:14.777Z,23.00
2022-10-23T05:04:45.199Z,22.98
2022-10-23T05:05:15.625Z,22.98
2022-10-23T05:05:46.055Z,22.99
2022-10-23T05:06:16.483Z,23.00
2022-10-23T05:06:46.907Z,23.00
2022-10-23T05:07:17.351Z,23.01
2022-10-23T05:07:47.768Z,23.03
2022-10-23T05:08:18.393Z,23.00
2022-10-23T05:08:48.796Z,23.01
2022-10-23T05:09:19.245Z,23.03
2022-10-23T05:09:49.667Z,23.00
2022-10-23T05:10:20.103Z,22.99
2022-10-23T05:10:50.584Z,23.00
2022-10-23T05:11:20.989Z,22.98
2022-10-23T05:11:51.414Z,22.99
2022-10-23T05:12:21.840Z,23.00
2022-10-23T05:12:52.262Z,22.98
2022-10-23T05:13:22.695Z,22.98
2022-10-23T05:13:53.132Z,22.97
2022-10-23T05:14:23.551Z,22.96
2022-10-23T05:14:53.990Z,22.95
2022-10-23T05:15:24.415Z,22.94
2022-10-23T05:15:54.850Z,22.95
2022-10-23T05:16:25.288Z,22.95
2022-10-23T05:16:55.721Z,22.95
2022-10-23T05:17:26.146Z,22.95
2022-10-23T05:17:56.561Z,22.95
2022-10-23T05:18:26.982Z,22.94
2022-10-23T05:18:57.407Z,22.94
2022-10-23T05:19:27.852Z,22.95
2022-10-23T05:19:58.282Z,22.98
2022-10-23T05:20:28.717Z,22.96
2022-10-23T05:20:59.141Z,22.96
2022-10-23T05:21:29.564Z,22.98
2022-10-23T05:21:59.991Z,22.99
2022-10-23T05:22:30.433Z,22.98
2022-10-23T05:23:00.858Z,22.95
2022-10-23T05:23:31.279Z,22.98
2022-10-23T05:24:01.727Z,23.00
2022-10-23T05:24:32.143Z,23.01
2022-10-23T05:25:02.573Z,23.00
2022-10-23T05:25:32.995Z,23.01
2022-10-23T05:26:03.435Z,23.01
2022-10-23T05:26:33.868Z,22.98
2022-10-23T05:27:04.295Z,22.97
2022-10-23T05:27:34.709Z,22.96
2022-10-23T05:28:05.135Z,22.99
2022-10-23T05:28:35.596Z,22.97
2022-10-23T05:29:06.046Z,22.98
2022-10-23T05:29:36.477Z,23.00
2022-10-23T05:30:06.908Z,23.00
2022-10-23T05:30:37.329Z,22.99
2022-10-23T05:31:07.764Z,22.99
2022-10-23T05:31:38.186Z,22.99
2022-10-23T05:32:08.645Z,23.01
2022-10-23T05:32:39.045Z,22.99
2022-10-23T05:33:09.468Z,23.00
2022-10-23T05:33:39.896Z,22.98
2022-10-23T05:34:13.304Z,23.00
2022-10-23T05:34:44.004Z,22.99
2022-10-23T05:35:14.464Z,22.99
2022-10-23T05:35:44.849Z,23.00
2022-10-23T05:36:15.272Z,22.99
2022-10-23T05:36:45.702Z,22.98
2022-10-23T05:37:16.123Z,22.96
2022-10-23T05:37:46.551Z,22.97
2022-10-23T05:38:16.970Z,22.99
2022-10-23T05:38:47.397Z,22.97
2022-10-23T05:39:17.817Z,22.95
2022-10-23T05:39:48.274Z,22.95
2022-10-23T05:40:18.689Z,22.95
2022-10-23T05:40:49.112Z,22.95
2022-10-23T05:41:19.545Z,22.94
2022-10-23T05:41:49.972Z,22.92
2022-10-23T05:42:20.397Z,22.94
2022-10-23T05:42:50.820Z,22.94
2022-10-23T05:43:21.249Z,22.93
2022-10-23T05:43:51.682Z,22.92
2022-10-23T05:44:22.121Z,22.91
2022-10-23T05:44:52.547Z,22.91
2022-10-23T05:45:22.967Z,22.92
2022-10-23T05:45:53.388Z,22.93
2022-10-23T05:46:23.812Z,22.93
2022-10-23T05:46:54.238Z,22.93
2022-10-23T05:47:24.654Z,22.93
2022-10-23T05:48:01.338Z,22.93
2022-10-23T05:48:34.812Z,22.94
2022-10-23T05:49:05.515Z,22.96
2022-10-23T05:49:35.928Z,22.97
2022-10-23T05:50:06.389Z,22.96
2022-10-23T05:50:36.810Z,22.97
2022-10-23T05:51:07.237Z,22.95
2022-10-23T05:51:37.666Z,22.96
2022-10-23T05:52:08.094Z,22.94
2022-10-23T05:52:38.541Z,22.95
2022-10-23T05:53:08.955Z,22.97
2022-10-23T05:53:41.793Z,22.96
2022-10-23T05:54:12.977Z,22.96
2022-10-23T05:54:43.395Z,22.98
2022-10-23T05:55:13.832Z,22.99
2022-10-23T05:55:44.260Z,22.96
2022-10-23T05:56:14.674Z,22.96
2022-10-23T05:56:45.096Z,22.96
2022-10-23T05:57:15.528Z,22.95
2022-10-23T05:57:46.267Z,22.99
2022-10-23T05:58:16.743Z,22.99
2022-10-23T05:58:47.164Z,22.97
2022-10-23T05:59:20.479Z,22.95
2022-10-23T05:59:52.932Z,22.97
2022-10-23T06:00:23.499Z,22.98
2022-10-23T06:00:53.935Z,22.99
2022-10-23T06:01:24.426Z,22.99
2022-10-23T06:01:54.886Z,23.01
2022-10-23T06:02:25.468Z,23.00
2022-10-23T06:02:55.870Z,23.00
2022-10-23T06:03:26.293Z,23.02
2022-10-23T06:03:56.715Z,23.00
2022-10-23T06:04:27.141Z,23.00
2022-10-23T06:04:57.562Z,23.00
2022-10-23T06:05:28.035Z,22.99
2022-10-23T06:05:58.436Z,22.99
2022-10-23T06:06:28.858Z,22.98
2022-10-23T06:06:59.294Z,23.00
2022-10-23T06:07:32.329Z,23.00
2022-10-23T06:08:05.048Z,23.00
2022-10-23T06:08:35.469Z,23.01
2022-10-23T06:09:05.912Z,23.03
2022-10-23T06:09:36.325Z,23.01
2022-10-23T06:10:06.744Z,22.99
2022-10-23T06:10:37.200Z,22.99
2022-10-23T06:11:07.639Z,23.01
2022-10-23T06:11:38.086Z,23.01
2022-10-23T06:12:08.511Z,23.00
2022-10-23T06:12:38.954Z,23.01
2022-10-23T06:13:09.386Z,23.00
2022-10-23T06:13:39.828Z,22.99
2022-10-23T06:14:10.271Z,23.00
2022-10-23T06:14:40.707Z,23.00
2022-10-23T06:15:11.400Z,22.98
2022-10-23T06:15:41.833Z,22.95
2022-10-23T06:16:12.265Z,22.96
2022-10-23T06:16:42.725Z,22.95
2022-10-23T06:17:13.138Z,22.95
2022-10-23T06:17:43.995Z,22.96
2022-10-23T06:18:14.571Z,22.97
2022-10-23T06:18:44.997Z,22.95
2022-10-23T06:19:15.423Z,22.96
2022-10-23T06:19:45.851Z,22.98
2022-10-23T06:20:16.276Z,23.01
2022-10-23T06:20:46.713Z,23.00
2022-10-23T06:21:17.157Z,23.01
2022-10-23T06:21:47.581Z,23.00
2022-10-23T06:22:18.005Z,22.99
2022-10-23T06:22:48.430Z,22.98
2022-10-23T06:23:18.869Z,22.99
2022-10-23T06:23:49.285Z,23.00
2022-10-23T06:24:19.710Z,23.01
2022-10-23T06:24:50.150Z,22.99
2022-10-23T06:25:20.570Z,23.01
2022-10-23T06:25:51.025Z,23.00
2022-10-23T06:26:21.447Z,22.98
2022-10-23T06:26:51.869Z,22.98
2022-10-23T06:27:22.316Z,22.99
2022-10-23T06:27:52.740Z,23.00
2022-10-23T06:28:23.164Z,23.02
2022-10-23T06:28:53.586Z,23.01
2022-10-23T06:29:24.009Z,23.01
2022-10-23T06:29:54.434Z,23.02
2022-10-23T06:30:24.934Z,23.02
2022-10-23T06:30:55.356Z,23.02
2022-10-23T06:31:25.794Z,23.03
2022-10-23T06:31:56.209Z,23.01
2022-10-23T06:32:26.642Z,23.00
2022-10-23T06:32:57.070Z,23.03
2022-10-23T06:33:27.497Z,23.04
2022-10-23T06:33:57.920Z,23.06
2022-10-23T06:34:28.367Z,23.05
2022-10-23T06:34:58.791Z,23.05
2022-10-23T06:35:29.230Z,23.05
2022-10-23T06:35:59.673Z,23.07